PWSweather.com
Personal Weather Stations
Station Observations
SUBOTICARS
SuboticaYU

SuboticaYU

Lat: 46.1296717, Lon: 19.641551

Elevation: 361

Station Type: Nexus

http://sumeteo.info

High Low Average
Temperature 34.2°F1.2°C 24.8°F-4.0°C 28.2°F-2.1°C
Dew Point 19.7°F-6.8°C 14.0°F-10.0°C 16.7°F-8.5°C
Winds 11.5 mph 18.5 kmh 2.3 mph 3.7 kmh 5.0 mph W8.0 kmh W
Wind Gusts 15.0 mph24.1 kmh 2.3 mph3.7 kmh 7.0 mph11.3 kmh
Humidity 67% 52% 62%
Pressure 29.51 in999.3 mb 29.45 in997.3 mb -
Precipitation 0.00 in0.0 mm - -
Hour Temp Dew Point Humidity Winds Wind Gusts Pressure Precip Precip Rate Daily Precip Total
12:00 AM 26.2°F-3.2°C 15.7°F-9.1°C 64% 9.2 mph N14.8 kmh N 9.2 mph14.8 kmh 29.46 in997.6 mb - 0.00 in0.0 mm 0.00 in0.0 mm
12:10 AM 26.1°F-3.3°C 15.5°F-9.2°C 64% 10.4 mph NNW16.7 kmh NNW 10.4 mph16.7 kmh 29.46 in997.6 mb - 0.00 in0.0 mm 0.00 in0.0 mm
12:15 AM 26.1°F-3.3°C 15.2°F-9.3°C 63% 9.2 mph NW14.8 kmh NW 9.2 mph14.8 kmh 29.46 in997.6 mb - 0.00 in0.0 mm 0.00 in0.0 mm
12:20 AM 26.1°F-3.3°C 15.2°F-9.3°C 63% 9.2 mph NW14.8 kmh NW 11.5 mph18.5 kmh 29.46 in997.6 mb - 0.00 in0.0 mm 0.00 in0.0 mm
12:25 AM 26.0°F-3.3°C 15.1°F-9.4°C 63% 8.1 mph NNW13.0 kmh NNW 11.5 mph18.5 kmh 29.46 in997.6 mb - 0.00 in0.0 mm 0.00 in0.0 mm
12:30 AM 25.9°F-3.4°C 14.6°F-9.7°C 62% 8.1 mph NW13.0 kmh NW 9.2 mph14.8 kmh 29.46 in997.6 mb - 0.00 in0.0 mm 0.00 in0.0 mm
12:35 AM 25.9°F-3.4°C 14.6°F-9.7°C 62% 8.1 mph N13.0 kmh N 9.2 mph14.8 kmh 29.46 in997.6 mb - 0.00 in0.0 mm 0.00 in0.0 mm
12:40 AM 25.7°F-3.5°C 14.5°F-9.7°C 62% 6.9 mph NNW11.1 kmh NNW 9.2 mph14.8 kmh 29.46 in997.6 mb - 0.00 in0.0 mm 0.00 in0.0 mm
12:45 AM 25.5°F-3.6°C 14.3°F-9.8°C 62% 9.2 mph NNW14.8 kmh NNW 11.5 mph18.5 kmh 29.46 in997.6 mb - 0.00 in0.0 mm 0.00 in0.0 mm
12:50 AM 25.5°F-3.6°C 14.3°F-9.8°C 62% 9.2 mph NNW14.8 kmh NNW 12.7 mph20.4 kmh 29.46 in997.6 mb - 0.00 in0.0 mm 0.00 in0.0 mm
12:55 AM 25.5°F-3.6°C 14.2°F-9.9°C 62% 6.9 mph NNW11.1 kmh NNW 9.2 mph14.8 kmh 29.46 in997.6 mb - 0.00 in0.0 mm 0.00 in0.0 mm
01:00 AM 25.5°F-3.6°C 14.3°F-9.8°C 62% 9.2 mph NNW14.8 kmh NNW 9.2 mph14.8 kmh 29.46 in997.6 mb - 0.00 in0.0 mm 0.00 in0.0 mm
01:10 AM 25.5°F-3.6°C 14.3°F-9.8°C 62% 9.2 mph NNW14.8 kmh NNW 11.5 mph18.5 kmh 29.46 in997.6 mb - 0.00 in0.0 mm 0.00 in0.0 mm
01:15 AM 25.3°F-3.7°C 14.5°F-9.7°C 63% 8.1 mph N13.0 kmh N 8.1 mph13.0 kmh 29.46 in997.6 mb - 0.00 in0.0 mm 0.00 in0.0 mm
01:20 AM 25.3°F-3.7°C 14.5°F-9.7°C 63% 9.2 mph NNW14.8 kmh NNW 9.2 mph14.8 kmh 29.46 in997.6 mb - 0.00 in0.0 mm 0.00 in0.0 mm
01:25 AM 25.3°F-3.7°C 14.5°F-9.7°C 63% 8.1 mph NW13.0 kmh NW 5.8 mph9.3 kmh 29.46 in997.6 mb - 0.00 in0.0 mm 0.00 in0.0 mm
01:30 AM 25.3°F-3.7°C 14.5°F-9.7°C 63% 9.2 mph NNW14.8 kmh NNW 6.9 mph11.1 kmh 29.46 in997.6 mb - 0.00 in0.0 mm 0.00 in0.0 mm
01:35 AM 25.3°F-3.7°C 14.5°F-9.7°C 63% 8.1 mph N13.0 kmh N 12.7 mph20.4 kmh 29.46 in997.6 mb - 0.00 in0.0 mm 0.00 in0.0 mm
01:40 AM 25.3°F-3.7°C 14.5°F-9.7°C 63% 5.8 mph N9.3 kmh N 6.9 mph11.1 kmh 29.46 in997.6 mb - 0.00 in0.0 mm 0.00 in0.0 mm
01:45 AM 25.3°F-3.7°C 14.5°F-9.7°C 63% 9.2 mph N14.8 kmh N 10.4 mph16.7 kmh 29.46 in997.6 mb - 0.00 in0.0 mm 0.00 in0.0 mm
01:50 AM 25.5°F-3.6°C 14.7°F-9.6°C 63% 8.1 mph NW13.0 kmh NW 9.2 mph14.8 kmh 29.46 in997.6 mb - 0.00 in0.0 mm 0.00 in0.0 mm
01:55 AM 25.3°F-3.7°C 14.5°F-9.7°C 63% 9.2 mph NNW14.8 kmh NNW 12.7 mph20.4 kmh 29.46 in997.6 mb - 0.00 in0.0 mm 0.00 in0.0 mm
02:00 AM 25.3°F-3.7°C 14.5°F-9.7°C 63% 8.1 mph NNW13.0 kmh NNW 9.2 mph14.8 kmh 29.46 in997.6 mb - 0.00 in0.0 mm 0.00 in0.0 mm
02:10 AM 25.3°F-3.7°C 14.5°F-9.7°C 63% 8.1 mph NNW13.0 kmh NNW 8.1 mph13.0 kmh 29.46 in997.6 mb - 0.00 in0.0 mm 0.00 in0.0 mm
02:15 AM 25.3°F-3.7°C 14.5°F-9.7°C 63% 6.9 mph NNE11.1 kmh NNE 9.2 mph14.8 kmh 29.46 in997.6 mb - 0.00 in0.0 mm 0.00 in0.0 mm
02:20 AM 25.5°F-3.6°C 14.7°F-9.6°C 63% 8.1 mph N13.0 kmh N 10.4 mph16.7 kmh 29.46 in997.6 mb - 0.00 in0.0 mm 0.00 in0.0 mm
02:25 AM 25.5°F-3.6°C 14.7°F-9.6°C 63% 8.1 mph WNW13.0 kmh WNW 10.4 mph16.7 kmh 29.46 in997.6 mb - 0.00 in0.0 mm 0.00 in0.0 mm
02:30 AM 25.5°F-3.6°C 14.7°F-9.6°C 63% 9.2 mph NNW14.8 kmh NNW 9.2 mph14.8 kmh 29.45 in997.3 mb - 0.00 in0.0 mm 0.00 in0.0 mm
02:35 AM 25.7°F-3.5°C 14.8°F-9.6°C 63% 9.2 mph N14.8 kmh N 10.4 mph16.7 kmh 29.45 in997.3 mb - 0.00 in0.0 mm 0.00 in0.0 mm
02:40 AM 25.5°F-3.6°C 14.7°F-9.6°C 63% 5.8 mph NNW9.3 kmh NNW 10.4 mph16.7 kmh 29.45 in997.3 mb - 0.00 in0.0 mm 0.00 in0.0 mm
02:45 AM 25.7°F-3.5°C 14.8°F-9.6°C 63% 9.2 mph N14.8 kmh N 12.7 mph20.4 kmh 29.46 in997.6 mb - 0.00 in0.0 mm 0.00 in0.0 mm
02:50 AM 25.9°F-3.4°C 15.0°F-9.4°C 63% 8.1 mph NNW13.0 kmh NNW 8.1 mph13.0 kmh 29.46 in997.6 mb - 0.00 in0.0 mm 0.00 in0.0 mm
02:55 AM 25.9°F-3.4°C 15.0°F-9.4°C 63% 9.2 mph NNW14.8 kmh NNW 12.7 mph20.4 kmh 29.46 in997.6 mb - 0.00 in0.0 mm 0.00 in0.0 mm
03:00 AM 26.1°F-3.3°C 15.2°F-9.3°C 63% 11.5 mph NNW18.5 kmh NNW 13.8 mph22.2 kmh 29.46 in997.6 mb - 0.00 in0.0 mm 0.00 in0.0 mm
03:10 AM 26.1°F-3.3°C 15.2°F-9.3°C 63% 6.9 mph NNW11.1 kmh NNW 8.1 mph13.0 kmh 29.46 in997.6 mb - 0.00 in0.0 mm 0.00 in0.0 mm
03:15 AM 26.2°F-3.2°C 15.3°F-9.3°C 63% 9.2 mph NNW14.8 kmh NNW 12.7 mph20.4 kmh 29.46 in997.6 mb - 0.00 in0.0 mm 0.00 in0.0 mm
03:20 AM 26.2°F-3.2°C 15.3°F-9.3°C 63% 6.9 mph NNW11.1 kmh NNW 8.1 mph13.0 kmh 29.46 in997.6 mb - 0.00 in0.0 mm 0.00 in0.0 mm
03:25 AM 26.2°F-3.2°C 15.3°F-9.3°C 63% 9.2 mph NNW14.8 kmh NNW 12.7 mph20.4 kmh 29.46 in997.6 mb - 0.00 in0.0 mm 0.00 in0.0 mm
03:30 AM 26.2°F-3.2°C 15.3°F-9.3°C 63% 9.2 mph NNW14.8 kmh NNW 12.7 mph20.4 kmh 29.46 in997.6 mb - 0.00 in0.0 mm 0.00 in0.0 mm
03:35 AM 26.4°F-3.1°C 15.5°F-9.2°C 63% 8.1 mph NNW13.0 kmh NNW 10.4 mph16.7 kmh 29.46 in997.6 mb - 0.00 in0.0 mm 0.00 in0.0 mm
03:40 AM 26.4°F-3.1°C 15.2°F-9.3°C 62% 10.4 mph NNW16.7 kmh NNW 15.0 mph24.1 kmh 29.46 in997.6 mb - 0.00 in0.0 mm 0.00 in0.0 mm
03:45 AM 26.4°F-3.1°C 15.5°F-9.2°C 63% 5.8 mph N9.3 kmh N 6.9 mph11.1 kmh 29.46 in997.6 mb - 0.00 in0.0 mm 0.00 in0.0 mm
03:50 AM 26.4°F-3.1°C 15.5°F-9.2°C 63% 6.9 mph NNW11.1 kmh NNW 10.4 mph16.7 kmh 29.46 in997.6 mb - 0.00 in0.0 mm 0.00 in0.0 mm
03:55 AM 26.5°F-3.1°C 15.6°F-9.1°C 63% 9.2 mph N14.8 kmh N 11.5 mph18.5 kmh 29.46 in997.6 mb - 0.00 in0.0 mm 0.00 in0.0 mm
04:00 AM 26.6°F-3.0°C 15.3°F-9.3°C 62% 8.1 mph N13.0 kmh N 15.0 mph24.1 kmh 29.45 in997.3 mb - 0.00 in0.0 mm 0.00 in0.0 mm
04:10 AM 26.6°F-3.0°C 15.3°F-9.3°C 62% 6.9 mph NNW11.1 kmh NNW 9.2 mph14.8 kmh 29.45 in997.3 mb - 0.00 in0.0 mm 0.00 in0.0 mm
04:15 AM 26.6°F-3.0°C 15.3°F-9.3°C 62% 8.1 mph NNW13.0 kmh NNW 8.1 mph13.0 kmh 29.45 in997.3 mb - 0.00 in0.0 mm 0.00 in0.0 mm
04:20 AM 26.6°F-3.0°C 15.3°F-9.3°C 62% 6.9 mph WNW11.1 kmh WNW 8.1 mph13.0 kmh 29.45 in997.3 mb - 0.00 in0.0 mm 0.00 in0.0 mm
04:25 AM 26.6°F-3.0°C 15.3°F-9.3°C 62% 9.2 mph NNW14.8 kmh NNW 10.4 mph16.7 kmh 29.45 in997.3 mb - 0.00 in0.0 mm 0.00 in0.0 mm
04:30 AM 26.6°F-3.0°C 15.3°F-9.3°C 62% 8.1 mph N13.0 kmh N 9.2 mph14.8 kmh 29.46 in997.6 mb - 0.00 in0.0 mm 0.00 in0.0 mm
04:35 AM 26.6°F-3.0°C 15.3°F-9.3°C 62% 8.1 mph NNE13.0 kmh NNE 13.8 mph22.2 kmh 29.46 in997.6 mb - 0.00 in0.0 mm 0.00 in0.0 mm
04:40 AM 26.6°F-3.0°C 15.3°F-9.3°C 62% 8.1 mph N13.0 kmh N 11.5 mph18.5 kmh 29.46 in997.6 mb - 0.00 in0.0 mm 0.00 in0.0 mm
04:45 AM 26.6°F-3.0°C 14.9°F-9.5°C 61% 8.1 mph NNW13.0 kmh NNW 9.2 mph14.8 kmh 29.46 in997.6 mb - 0.00 in0.0 mm 0.00 in0.0 mm
04:50 AM 26.4°F-3.1°C 14.8°F-9.6°C 61% 10.4 mph N16.7 kmh N 12.7 mph20.4 kmh 29.46 in997.6 mb - 0.00 in0.0 mm 0.00 in0.0 mm
04:55 AM 26.4°F-3.1°C 15.2°F-9.3°C 62% 9.2 mph NW14.8 kmh NW 9.2 mph14.8 kmh 29.46 in997.6 mb - 0.00 in0.0 mm 0.00 in0.0 mm
05:00 AM 26.4°F-3.1°C 15.2°F-9.3°C 62% 8.1 mph NW13.0 kmh NW 8.1 mph13.0 kmh 29.46 in997.6 mb - 0.00 in0.0 mm 0.00 in0.0 mm
05:10 AM 26.6°F-3.0°C 15.3°F-9.3°C 62% 9.2 mph NW14.8 kmh NW 11.5 mph18.5 kmh 29.46 in997.6 mb - 0.00 in0.0 mm 0.00 in0.0 mm
05:15 AM 26.4°F-3.1°C 15.2°F-9.3°C 62% 9.2 mph NNW14.8 kmh NNW 11.5 mph18.5 kmh 29.46 in997.6 mb - 0.00 in0.0 mm 0.00 in0.0 mm
05:20 AM 26.4°F-3.1°C 15.2°F-9.3°C 62% 10.4 mph NNW16.7 kmh NNW 6.9 mph11.1 kmh 29.46 in997.6 mb - 0.00 in0.0 mm 0.00 in0.0 mm
05:25 AM 26.4°F-3.1°C 14.8°F-9.6°C 61% 9.2 mph NNW14.8 kmh NNW 11.5 mph18.5 kmh 29.46 in997.6 mb - 0.00 in0.0 mm 0.00 in0.0 mm
05:30 AM 26.6°F-3.0°C 14.9°F-9.5°C 61% 10.4 mph NNW16.7 kmh NNW 11.5 mph18.5 kmh 29.46 in997.6 mb - 0.00 in0.0 mm 0.00 in0.0 mm
05:35 AM 26.6°F-3.0°C 14.9°F-9.5°C 61% 9.2 mph NNW14.8 kmh NNW 9.2 mph14.8 kmh 29.46 in997.6 mb - 0.00 in0.0 mm 0.00 in0.0 mm
05:40 AM 26.6°F-3.0°C 15.3°F-9.3°C 62% 9.2 mph NNW14.8 kmh NNW 12.7 mph20.4 kmh 29.46 in997.6 mb - 0.00 in0.0 mm 0.00 in0.0 mm
05:45 AM 26.6°F-3.0°C 15.3°F-9.3°C 62% 8.1 mph N13.0 kmh N 9.2 mph14.8 kmh 29.46 in997.6 mb - 0.00 in0.0 mm 0.00 in0.0 mm
05:50 AM 26.6°F-3.0°C 15.3°F-9.3°C 62% 10.4 mph NNW16.7 kmh NNW 13.8 mph22.2 kmh 29.46 in997.6 mb - 0.00 in0.0 mm 0.00 in0.0 mm
05:55 AM 26.6°F-3.0°C 15.3°F-9.3°C 62% 6.9 mph NNW11.1 kmh NNW 8.1 mph13.0 kmh 29.46 in997.6 mb - 0.00 in0.0 mm 0.00 in0.0 mm
06:00 AM 26.6°F-3.0°C 15.3°F-9.3°C 62% 6.9 mph NNW11.1 kmh NNW 8.1 mph13.0 kmh 29.47 in998.0 mb - 0.00 in0.0 mm 0.00 in0.0 mm
06:10 AM 26.6°F-3.0°C 15.3°F-9.3°C 62% 10.4 mph NNW16.7 kmh NNW 12.7 mph20.4 kmh 29.47 in998.0 mb - 0.00 in0.0 mm 0.00 in0.0 mm
06:15 AM 26.8°F-2.9°C 15.5°F-9.2°C 62% 6.9 mph NNW11.1 kmh NNW 9.2 mph14.8 kmh 29.47 in998.0 mb - 0.00 in0.0 mm 0.00 in0.0 mm
06:20 AM 26.8°F-2.9°C 15.5°F-9.2°C 62% 11.5 mph NNW18.5 kmh NNW 13.8 mph22.2 kmh 29.47 in998.0 mb - 0.00 in0.0 mm 0.00 in0.0 mm
06:25 AM 26.6°F-3.0°C 15.3°F-9.3°C 62% 6.9 mph NNW11.1 kmh NNW 8.1 mph13.0 kmh 29.47 in998.0 mb - 0.00 in0.0 mm 0.00 in0.0 mm
06:30 AM 26.6°F-3.0°C 15.7°F-9.1°C 63% 8.1 mph N13.0 kmh N 12.7 mph20.4 kmh 29.46 in997.6 mb - 0.00 in0.0 mm 0.00 in0.0 mm
06:35 AM 26.6°F-3.0°C 15.7°F-9.1°C 63% 6.9 mph NNW11.1 kmh NNW 9.2 mph14.8 kmh 29.46 in997.6 mb - 0.00 in0.0 mm 0.00 in0.0 mm
06:40 AM 26.6°F-3.0°C 15.7°F-9.1°C 63% 8.1 mph NNW13.0 kmh NNW 8.1 mph13.0 kmh 29.46 in997.6 mb - 0.00 in0.0 mm 0.00 in0.0 mm
06:45 AM 26.6°F-3.0°C 15.7°F-9.1°C 63% 9.2 mph NNW14.8 kmh NNW 8.1 mph13.0 kmh 29.48 in998.3 mb - 0.00 in0.0 mm 0.00 in0.0 mm
06:50 AM 26.4°F-3.1°C 15.5°F-9.2°C 63% 6.9 mph N11.1 kmh N 5.8 mph9.3 kmh 29.48 in998.3 mb - 0.00 in0.0 mm 0.00 in0.0 mm
06:55 AM 26.4°F-3.1°C 15.5°F-9.2°C 63% 5.8 mph NNE9.3 kmh NNE 6.9 mph11.1 kmh 29.48 in998.3 mb - 0.00 in0.0 mm 0.00 in0.0 mm
07:00 AM 26.6°F-3.0°C 15.7°F-9.1°C 63% 9.2 mph NNW14.8 kmh NNW 10.4 mph16.7 kmh 29.48 in998.3 mb - 0.00 in0.0 mm 0.00 in0.0 mm
07:10 AM 26.4°F-3.1°C 15.5°F-9.2°C 63% 8.1 mph NW13.0 kmh NW 6.9 mph11.1 kmh 29.48 in998.3 mb - 0.00 in0.0 mm 0.00 in0.0 mm
07:15 AM 26.4°F-3.1°C 15.5°F-9.2°C 63% 5.8 mph NW9.3 kmh NW 6.9 mph11.1 kmh 29.49 in998.6 mb - 0.00 in0.0 mm 0.00 in0.0 mm
07:20 AM 26.4°F-3.1°C 15.5°F-9.2°C 63% 6.9 mph NNW11.1 kmh NNW 8.1 mph13.0 kmh 29.49 in998.6 mb - 0.00 in0.0 mm 0.00 in0.0 mm
07:25 AM 26.2°F-3.2°C 15.7°F-9.1°C 64% 5.8 mph NNW9.3 kmh NNW 8.1 mph13.0 kmh 29.49 in998.6 mb - 0.00 in0.0 mm 0.00 in0.0 mm
07:30 AM 26.2°F-3.2°C 15.3°F-9.3°C 63% 8.1 mph NNW13.0 kmh NNW 11.5 mph18.5 kmh 29.48 in998.3 mb - 0.00 in0.0 mm 0.00 in0.0 mm
07:35 AM 26.1°F-3.3°C 15.5°F-9.2°C 64% 4.6 mph NNW7.4 kmh NNW 5.8 mph9.3 kmh 29.48 in998.3 mb - 0.00 in0.0 mm 0.00 in0.0 mm
07:40 AM 25.9°F-3.4°C 15.4°F-9.2°C 64% 5.8 mph NNW9.3 kmh NNW 8.1 mph13.0 kmh 29.48 in998.3 mb - 0.00 in0.0 mm 0.00 in0.0 mm
07:45 AM 25.9°F-3.4°C 15.4°F-9.2°C 64% 4.6 mph NNW7.4 kmh NNW 5.8 mph9.3 kmh 29.49 in998.6 mb - 0.00 in0.0 mm 0.00 in0.0 mm
07:50 AM 25.8°F-3.4°C 15.3°F-9.3°C 64% 6.9 mph NNW11.1 kmh NNW 8.1 mph13.0 kmh 29.49 in998.6 mb - 0.00 in0.0 mm 0.00 in0.0 mm
07:55 AM 25.7°F-3.5°C 15.2°F-9.3°C 64% 5.8 mph N9.3 kmh N 10.4 mph16.7 kmh 29.49 in998.6 mb - 0.00 in0.0 mm 0.00 in0.0 mm
08:00 AM 25.7°F-3.5°C 14.8°F-9.6°C 63% 9.2 mph NNW14.8 kmh NNW 9.2 mph14.8 kmh 29.49 in998.6 mb - 0.00 in0.0 mm 0.00 in0.0 mm
08:10 AM 25.5°F-3.6°C 14.7°F-9.6°C 63% 6.9 mph NW11.1 kmh NW 8.1 mph13.0 kmh 29.49 in998.6 mb - 0.00 in0.0 mm 0.00 in0.0 mm
08:15 AM 25.5°F-3.6°C 14.7°F-9.6°C 63% 5.8 mph N9.3 kmh N 10.4 mph16.7 kmh 29.50 in999.0 mb - 0.00 in0.0 mm 0.00 in0.0 mm
08:20 AM 25.3°F-3.7°C 14.5°F-9.7°C 63% 6.9 mph NNW11.1 kmh NNW 9.2 mph14.8 kmh 29.50 in999.0 mb - 0.00 in0.0 mm 0.00 in0.0 mm
08:25 AM 25.3°F-3.7°C 14.5°F-9.7°C 63% 5.8 mph NNW9.3 kmh NNW 6.9 mph11.1 kmh 29.50 in999.0 mb - 0.00 in0.0 mm 0.00 in0.0 mm
08:30 AM 25.2°F-3.8°C 14.3°F-9.8°C 63% 5.8 mph NNW9.3 kmh NNW 5.8 mph9.3 kmh 29.49 in998.6 mb - 0.00 in0.0 mm 0.00 in0.0 mm
08:35 AM 25.2°F-3.8°C 14.3°F-9.8°C 63% 9.2 mph NNW14.8 kmh NNW 10.4 mph16.7 kmh 29.49 in998.6 mb - 0.00 in0.0 mm 0.00 in0.0 mm
08:40 AM 25.0°F-3.9°C 14.2°F-9.9°C 63% 5.8 mph NNW9.3 kmh NNW 8.1 mph13.0 kmh 29.49 in998.6 mb - 0.00 in0.0 mm 0.00 in0.0 mm
08:45 AM 25.0°F-3.9°C 14.2°F-9.9°C 63% 5.8 mph NNW9.3 kmh NNW 10.4 mph16.7 kmh 29.50 in999.0 mb - 0.00 in0.0 mm 0.00 in0.0 mm
08:50 AM 24.8°F-4.0°C 14.0°F-10.0°C 63% 5.8 mph NNW9.3 kmh NNW 5.8 mph9.3 kmh 29.50 in999.0 mb - 0.00 in0.0 mm 0.00 in0.0 mm
08:55 AM 24.8°F-4.0°C 14.0°F-10.0°C 63% 6.9 mph NNW11.1 kmh NNW 8.1 mph13.0 kmh 29.50 in999.0 mb - 0.00 in0.0 mm 0.00 in0.0 mm
09:00 AM 25.2°F-3.8°C 14.3°F-9.8°C 63% 6.9 mph NNW11.1 kmh NNW 6.9 mph11.1 kmh 29.50 in999.0 mb - 0.00 in0.0 mm 0.00 in0.0 mm
09:10 AM 25.5°F-3.6°C 14.3°F-9.8°C 62% 4.6 mph NW7.4 kmh NW 5.8 mph9.3 kmh 29.50 in999.0 mb - 0.00 in0.0 mm 0.00 in0.0 mm
09:15 AM 25.5°F-3.6°C 14.3°F-9.8°C 62% 5.8 mph NNW9.3 kmh NNW 6.9 mph11.1 kmh 29.50 in999.0 mb - 0.00 in0.0 mm 0.00 in0.0 mm
09:20 AM 25.7°F-3.5°C 14.5°F-9.7°C 62% 5.8 mph NNW9.3 kmh NNW 9.2 mph14.8 kmh 29.50 in999.0 mb - 0.00 in0.0 mm 0.00 in0.0 mm
09:25 AM 25.7°F-3.5°C 14.1°F-9.9°C 61% 4.6 mph NNW7.4 kmh NNW 4.6 mph7.4 kmh 29.50 in999.0 mb - 0.00 in0.0 mm 0.00 in0.0 mm
09:30 AM 25.7°F-3.5°C 14.5°F-9.7°C 62% 4.6 mph NNW7.4 kmh NNW 8.1 mph13.0 kmh 29.50 in999.0 mb - 0.00 in0.0 mm 0.00 in0.0 mm
09:35 AM 25.7°F-3.5°C 14.1°F-9.9°C 61% 5.8 mph NW9.3 kmh NW 5.8 mph9.3 kmh 29.50 in999.0 mb - 0.00 in0.0 mm 0.00 in0.0 mm
09:40 AM 26.2°F-3.2°C 14.6°F-9.7°C 61% 4.6 mph NNW7.4 kmh NNW 4.6 mph7.4 kmh 29.50 in999.0 mb - 0.00 in0.0 mm 0.00 in0.0 mm
09:45 AM 26.6°F-3.0°C 14.9°F-9.5°C 61% 4.6 mph NNW7.4 kmh NNW 6.9 mph11.1 kmh 29.50 in999.0 mb - 0.00 in0.0 mm 0.00 in0.0 mm
09:50 AM 27.5°F-2.5°C 15.4°F-9.2°C 60% 4.6 mph NNW7.4 kmh NNW 5.8 mph9.3 kmh 29.50 in999.0 mb - 0.00 in0.0 mm 0.00 in0.0 mm
09:55 AM 27.7°F-2.4°C 15.2°F-9.3°C 59% 5.8 mph NNW9.3 kmh NNW 5.8 mph9.3 kmh 29.50 in999.0 mb - 0.00 in0.0 mm 0.00 in0.0 mm
10:00 AM 28.2°F-2.1°C 15.3°F-9.3°C 58% 5.8 mph NNW9.3 kmh NNW 6.9 mph11.1 kmh 29.50 in999.0 mb - 0.00 in0.0 mm 0.00 in0.0 mm
10:10 AM 28.4°F-2.0°C 15.5°F-9.2°C 58% 4.6 mph NW7.4 kmh NW 5.8 mph9.3 kmh 29.50 in999.0 mb - 0.00 in0.0 mm 0.00 in0.0 mm
10:15 AM 28.4°F-2.0°C 15.5°F-9.2°C 58% 5.8 mph WNW9.3 kmh WNW 4.6 mph7.4 kmh 29.51 in999.3 mb - 0.00 in0.0 mm 0.00 in0.0 mm
10:20 AM 28.4°F-2.0°C 15.5°F-9.2°C 58% 6.9 mph NW11.1 kmh NW 8.1 mph13.0 kmh 29.51 in999.3 mb - 0.00 in0.0 mm 0.00 in0.0 mm
10:25 AM 28.4°F-2.0°C 15.5°F-9.2°C 58% 8.1 mph WNW13.0 kmh WNW 10.4 mph16.7 kmh 29.51 in999.3 mb - 0.00 in0.0 mm 0.00 in0.0 mm
10:30 AM 28.8°F-1.8°C 15.4°F-9.2°C 57% 5.8 mph NW9.3 kmh NW 5.8 mph9.3 kmh 29.51 in999.3 mb - 0.00 in0.0 mm 0.00 in0.0 mm
10:35 AM 28.8°F-1.8°C 15.4°F-9.2°C 57% 4.6 mph NW7.4 kmh NW 4.6 mph7.4 kmh 29.51 in999.3 mb - 0.00 in0.0 mm 0.00 in0.0 mm
10:40 AM 29.5°F-1.4°C 15.7°F-9.1°C 56% 6.9 mph NW11.1 kmh NW 8.1 mph13.0 kmh 29.51 in999.3 mb - 0.00 in0.0 mm 0.00 in0.0 mm
10:45 AM 29.7°F-1.3°C 15.9°F-8.9°C 56% 5.8 mph NW9.3 kmh NW 5.8 mph9.3 kmh 29.51 in999.3 mb - 0.00 in0.0 mm 0.00 in0.0 mm
10:50 AM 29.7°F-1.3°C 15.9°F-8.9°C 56% 4.6 mph W7.4 kmh W 5.8 mph9.3 kmh 29.51 in999.3 mb - 0.00 in0.0 mm 0.00 in0.0 mm
10:55 AM 29.7°F-1.3°C 15.9°F-8.9°C 56% 4.6 mph NW7.4 kmh NW 5.8 mph9.3 kmh 29.51 in999.3 mb - 0.00 in0.0 mm 0.00 in0.0 mm
11:00 AM 30.4°F-0.9°C 16.1°F-8.8°C 55% 5.8 mph NW9.3 kmh NW 6.9 mph11.1 kmh 29.51 in999.3 mb - 0.00 in0.0 mm 0.00 in0.0 mm
11:10 AM 30.4°F-0.9°C 16.1°F-8.8°C 55% 5.8 mph NW9.3 kmh NW 5.8 mph9.3 kmh 29.51 in999.3 mb - 0.00 in0.0 mm 0.00 in0.0 mm
11:15 AM 30.4°F-0.9°C 16.1°F-8.8°C 55% 3.5 mph NW5.6 kmh NW 3.5 mph5.6 kmh 29.50 in999.0 mb - 0.00 in0.0 mm 0.00 in0.0 mm
11:20 AM 31.5°F-0.3°C 16.7°F-8.5°C 54% 4.6 mph WSW7.4 kmh WSW 5.8 mph9.3 kmh 29.50 in999.0 mb - 0.00 in0.0 mm 0.00 in0.0 mm
11:25 AM 31.5°F-0.3°C 16.7°F-8.5°C 54% 4.6 mph NW7.4 kmh NW 8.1 mph13.0 kmh 29.50 in999.0 mb - 0.00 in0.0 mm 0.00 in0.0 mm
11:30 AM 31.5°F-0.3°C 16.7°F-8.5°C 54% 5.8 mph WNW9.3 kmh WNW 6.9 mph11.1 kmh 29.50 in999.0 mb - 0.00 in0.0 mm 0.00 in0.0 mm
11:35 AM 31.5°F-0.3°C 16.7°F-8.5°C 54% 5.8 mph NNW9.3 kmh NNW 5.8 mph9.3 kmh 29.50 in999.0 mb - 0.00 in0.0 mm 0.00 in0.0 mm
11:40 AM 31.5°F-0.3°C 16.7°F-8.5°C 54% 5.8 mph NW9.3 kmh NW 6.9 mph11.1 kmh 29.50 in999.0 mb - 0.00 in0.0 mm 0.00 in0.0 mm
11:45 AM 31.5°F-0.3°C 16.7°F-8.5°C 54% 5.8 mph WNW9.3 kmh WNW 5.8 mph9.3 kmh 29.50 in999.0 mb - 0.00 in0.0 mm 0.00 in0.0 mm
11:50 AM 31.5°F-0.3°C 16.7°F-8.5°C 54% 4.6 mph NNW7.4 kmh NNW 6.9 mph11.1 kmh 29.50 in999.0 mb - 0.00 in0.0 mm 0.00 in0.0 mm
11:55 AM 32.0°F0.0°C 16.3°F-8.7°C 52% 5.8 mph NW9.3 kmh NW 5.8 mph9.3 kmh 29.50 in999.0 mb - 0.00 in0.0 mm 0.00 in0.0 mm
12:00 PM 32.0°F0.0°C 16.3°F-8.7°C 52% 6.9 mph WNW11.1 kmh WNW 8.1 mph13.0 kmh 29.49 in998.6 mb - 0.00 in0.0 mm 0.00 in0.0 mm
12:10 PM 32.0°F0.0°C 16.3°F-8.7°C 52% 4.6 mph WNW7.4 kmh WNW 5.8 mph9.3 kmh 29.49 in998.6 mb - 0.00 in0.0 mm 0.00 in0.0 mm
12:15 PM 32.0°F0.0°C 16.3°F-8.7°C 52% 3.5 mph WNW5.6 kmh WNW 3.5 mph5.6 kmh 29.49 in998.6 mb - 0.00 in0.0 mm 0.00 in0.0 mm
12:20 PM 32.0°F0.0°C 16.3°F-8.7°C 52% 4.6 mph WSW7.4 kmh WSW 4.6 mph7.4 kmh 29.49 in998.6 mb - 0.00 in0.0 mm 0.00 in0.0 mm
12:25 PM 32.0°F0.0°C 16.3°F-8.7°C 52% 4.6 mph W7.4 kmh W 4.6 mph7.4 kmh 29.49 in998.6 mb - 0.00 in0.0 mm 0.00 in0.0 mm
12:30 PM 32.0°F0.0°C 16.3°F-8.7°C 52% 5.8 mph WNW9.3 kmh WNW 8.1 mph13.0 kmh 29.49 in998.6 mb - 0.00 in0.0 mm 0.00 in0.0 mm
12:35 PM 32.0°F0.0°C 16.3°F-8.7°C 52% 4.6 mph W7.4 kmh W 6.9 mph11.1 kmh 29.49 in998.6 mb - 0.00 in0.0 mm 0.00 in0.0 mm
12:40 PM 32.0°F0.0°C 16.3°F-8.7°C 52% 4.6 mph WNW7.4 kmh WNW 5.8 mph9.3 kmh 29.49 in998.6 mb - 0.00 in0.0 mm 0.00 in0.0 mm
12:45 PM 32.0°F0.0°C 16.3°F-8.7°C 52% 3.5 mph WSW5.6 kmh WSW 4.6 mph7.4 kmh 29.49 in998.6 mb - 0.00 in0.0 mm 0.00 in0.0 mm
12:50 PM 32.0°F0.0°C 16.3°F-8.7°C 52% 5.8 mph NW9.3 kmh NW 6.9 mph11.1 kmh 29.49 in998.6 mb - 0.00 in0.0 mm 0.00 in0.0 mm
12:55 PM 34.2°F1.2°C 19.7°F-6.8°C 55% 3.5 mph WNW5.6 kmh WNW 3.5 mph5.6 kmh 29.49 in998.6 mb - 0.00 in0.0 mm 0.00 in0.0 mm
01:00 PM 34.2°F1.2°C 19.7°F-6.8°C 55% 6.9 mph W11.1 kmh W 8.1 mph13.0 kmh 29.48 in998.3 mb - 0.00 in0.0 mm 0.00 in0.0 mm
01:10 PM 34.2°F1.2°C 19.7°F-6.8°C 55% 5.8 mph WNW9.3 kmh WNW 6.9 mph11.1 kmh 29.48 in998.3 mb - 0.00 in0.0 mm 0.00 in0.0 mm
01:15 PM 34.2°F1.2°C 19.7°F-6.8°C 55% 4.6 mph WNW7.4 kmh WNW 8.1 mph13.0 kmh 29.48 in998.3 mb - 0.00 in0.0 mm 0.00 in0.0 mm
01:20 PM 34.2°F1.2°C 19.7°F-6.8°C 55% 6.9 mph WNW11.1 kmh WNW 10.4 mph16.7 kmh 29.48 in998.3 mb - 0.00 in0.0 mm 0.00 in0.0 mm
01:25 PM 34.2°F1.2°C 19.7°F-6.8°C 55% 3.5 mph NW5.6 kmh NW 4.6 mph7.4 kmh 29.48 in998.3 mb - 0.00 in0.0 mm 0.00 in0.0 mm
01:30 PM 33.1°F0.6°C 18.2°F-7.7°C 54% 5.8 mph WNW9.3 kmh WNW 8.1 mph13.0 kmh 29.48 in998.3 mb - 0.00 in0.0 mm 0.00 in0.0 mm
01:35 PM 33.1°F0.6°C 18.2°F-7.7°C 54% 3.5 mph WNW5.6 kmh WNW 6.9 mph11.1 kmh 29.48 in998.3 mb - 0.00 in0.0 mm 0.00 in0.0 mm
01:40 PM 33.1°F0.6°C 18.2°F-7.7°C 54% 5.8 mph NNW9.3 kmh NNW 6.9 mph11.1 kmh 29.48 in998.3 mb - 0.00 in0.0 mm 0.00 in0.0 mm
01:45 PM 33.1°F0.6°C 18.2°F-7.7°C 54% 3.5 mph WSW5.6 kmh WSW 3.5 mph5.6 kmh 29.47 in998.0 mb - 0.00 in0.0 mm 0.00 in0.0 mm
01:50 PM 33.1°F0.6°C 18.2°F-7.7°C 54% 3.5 mph WNW5.6 kmh WNW 4.6 mph7.4 kmh 29.47 in998.0 mb - 0.00 in0.0 mm 0.00 in0.0 mm
01:55 PM 33.1°F0.6°C 18.2°F-7.7°C 54% 4.6 mph WNW7.4 kmh WNW 9.2 mph14.8 kmh 29.47 in998.0 mb - 0.00 in0.0 mm 0.00 in0.0 mm
02:00 PM 32.4°F0.2°C 18.4°F-7.6°C 56% 4.6 mph WSW7.4 kmh WSW 3.5 mph5.6 kmh 29.47 in998.0 mb - 0.00 in0.0 mm 0.00 in0.0 mm
02:10 PM 32.1°F0.1°C 18.2°F-7.7°C 56% 4.6 mph WNW7.4 kmh WNW 5.8 mph9.3 kmh 29.47 in998.0 mb - 0.00 in0.0 mm 0.00 in0.0 mm
02:15 PM 32.0°F0.0°C 18.1°F-7.7°C 56% 3.5 mph WNW5.6 kmh WNW 3.5 mph5.6 kmh 29.47 in998.0 mb - 0.00 in0.0 mm 0.00 in0.0 mm
02:20 PM 32.0°F0.0°C 18.1°F-7.7°C 56% 5.8 mph NNW9.3 kmh NNW 3.5 mph5.6 kmh 29.47 in998.0 mb - 0.00 in0.0 mm 0.00 in0.0 mm
02:25 PM 32.0°F0.0°C 18.1°F-7.7°C 56% 3.5 mph WNW5.6 kmh WNW 3.5 mph5.6 kmh 29.47 in998.0 mb - 0.00 in0.0 mm 0.00 in0.0 mm
02:30 PM 32.0°F0.0°C 18.5°F-7.5°C 57% 3.5 mph WNW5.6 kmh WNW 4.6 mph7.4 kmh 29.47 in998.0 mb - 0.00 in0.0 mm 0.00 in0.0 mm
02:35 PM 31.9°F-0.1°C 18.4°F-7.6°C 57% 4.6 mph NW7.4 kmh NW 5.8 mph9.3 kmh 29.47 in998.0 mb - 0.00 in0.0 mm 0.00 in0.0 mm
02:40 PM 31.6°F-0.2°C 18.5°F-7.5°C 58% 3.5 mph WNW5.6 kmh WNW 4.6 mph7.4 kmh 29.47 in998.0 mb - 0.00 in0.0 mm 0.00 in0.0 mm
02:45 PM 31.6°F-0.2°C 18.5°F-7.5°C 58% 3.5 mph SW5.6 kmh SW 4.6 mph7.4 kmh 29.47 in998.0 mb - 0.00 in0.0 mm 0.00 in0.0 mm
02:50 PM 31.6°F-0.2°C 18.5°F-7.5°C 58% 3.5 mph SW5.6 kmh SW 4.6 mph7.4 kmh 29.47 in998.0 mb - 0.00 in0.0 mm 0.00 in0.0 mm
02:55 PM 31.6°F-0.2°C 18.5°F-7.5°C 58% 3.5 mph W5.6 kmh W 3.5 mph5.6 kmh 29.47 in998.0 mb - 0.00 in0.0 mm 0.00 in0.0 mm
03:00 PM 31.1°F-0.5°C 18.0°F-7.8°C 58% 3.5 mph SSW5.6 kmh SSW 3.5 mph5.6 kmh 29.48 in998.3 mb - 0.00 in0.0 mm 0.00 in0.0 mm
03:10 PM 30.7°F-0.7°C 18.1°F-7.7°C 59% 2.3 mph NW3.7 kmh NW 3.5 mph5.6 kmh 29.48 in998.3 mb - 0.00 in0.0 mm 0.00 in0.0 mm
03:15 PM 30.7°F-0.7°C 18.1°F-7.7°C 59% 2.3 mph NW3.7 kmh NW 3.5 mph5.6 kmh 29.47 in998.0 mb - 0.00 in0.0 mm 0.00 in0.0 mm
03:20 PM 30.7°F-0.7°C 18.1°F-7.7°C 59% 3.5 mph NW5.6 kmh NW 3.5 mph5.6 kmh 29.47 in998.0 mb - 0.00 in0.0 mm 0.00 in0.0 mm
03:25 PM 30.7°F-0.7°C 18.1°F-7.7°C 59% 3.5 mph WSW5.6 kmh WSW 3.5 mph5.6 kmh 29.47 in998.0 mb - 0.00 in0.0 mm 0.00 in0.0 mm
03:30 PM 30.3°F-0.9°C 18.0°F-7.8°C 60% 3.5 mph SSW5.6 kmh SSW 5.8 mph9.3 kmh 29.48 in998.3 mb - 0.00 in0.0 mm 0.00 in0.0 mm
03:35 PM 30.2°F-1.0°C 18.0°F-7.8°C 60% 3.5 mph SW5.6 kmh SW 4.6 mph7.4 kmh 29.48 in998.3 mb - 0.00 in0.0 mm 0.00 in0.0 mm
03:40 PM 30.0°F-1.1°C 17.8°F-7.9°C 60% 3.5 mph WSW5.6 kmh WSW 5.8 mph9.3 kmh 29.48 in998.3 mb - 0.00 in0.0 mm 0.00 in0.0 mm
03:45 PM 30.0°F-1.1°C 17.8°F-7.9°C 60% 3.5 mph W5.6 kmh W 4.6 mph7.4 kmh 29.48 in998.3 mb - 0.00 in0.0 mm 0.00 in0.0 mm
03:50 PM 29.8°F-1.2°C 17.6°F-8.0°C 60% 4.6 mph WSW7.4 kmh WSW 5.8 mph9.3 kmh 29.48 in998.3 mb - 0.00 in0.0 mm 0.00 in0.0 mm
03:55 PM 29.7°F-1.3°C 17.8°F-7.9°C 61% 2.3 mph WSW3.7 kmh WSW 4.6 mph7.4 kmh 29.48 in998.3 mb - 0.00 in0.0 mm 0.00 in0.0 mm
04:00 PM 29.7°F-1.3°C 17.8°F-7.9°C 61% 3.5 mph WNW5.6 kmh WNW 4.6 mph7.4 kmh 29.47 in998.0 mb - 0.00 in0.0 mm 0.00 in0.0 mm
04:10 PM 29.7°F-1.3°C 17.8°F-7.9°C 61% 2.3 mph WSW3.7 kmh WSW 2.3 mph3.7 kmh 29.47 in998.0 mb - 0.00 in0.0 mm 0.00 in0.0 mm
04:15 PM 29.1°F-1.6°C 17.3°F-8.2°C 61% 3.5 mph W5.6 kmh W 3.5 mph5.6 kmh 29.47 in998.0 mb - 0.00 in0.0 mm 0.00 in0.0 mm
04:20 PM 28.9°F-1.7°C 17.2°F-8.2°C 61% 3.5 mph W5.6 kmh W 3.5 mph5.6 kmh 29.47 in998.0 mb - 0.00 in0.0 mm 0.00 in0.0 mm
04:25 PM 28.9°F-1.7°C 17.2°F-8.2°C 61% 3.5 mph NW5.6 kmh NW 4.6 mph7.4 kmh 29.47 in998.0 mb - 0.00 in0.0 mm 0.00 in0.0 mm
04:30 PM 28.8°F-1.8°C 17.4°F-8.1°C 62% 3.5 mph SW5.6 kmh SW 3.5 mph5.6 kmh 29.47 in998.0 mb - 0.00 in0.0 mm 0.00 in0.0 mm
04:35 PM 28.8°F-1.8°C 17.4°F-8.1°C 62% 3.5 mph SW5.6 kmh SW 4.6 mph7.4 kmh 29.47 in998.0 mb - 0.00 in0.0 mm 0.00 in0.0 mm
04:40 PM 28.8°F-1.8°C 17.4°F-8.1°C 62% 3.5 mph WNW5.6 kmh WNW 4.6 mph7.4 kmh 29.47 in998.0 mb - 0.00 in0.0 mm 0.00 in0.0 mm
04:45 PM 28.6°F-1.9°C 17.2°F-8.2°C 62% 3.5 mph W5.6 kmh W 3.5 mph5.6 kmh 29.47 in998.0 mb - 0.00 in0.0 mm 0.00 in0.0 mm
04:50 PM 28.4°F-2.0°C 17.4°F-8.1°C 63% 3.5 mph WSW5.6 kmh WSW 5.8 mph9.3 kmh 29.47 in998.0 mb - 0.00 in0.0 mm 0.00 in0.0 mm
04:55 PM 28.4°F-2.0°C 17.4°F-8.1°C 63% 3.5 mph SW5.6 kmh SW 3.5 mph5.6 kmh 29.47 in998.0 mb - 0.00 in0.0 mm 0.00 in0.0 mm
05:00 PM 28.2°F-2.1°C 17.2°F-8.2°C 63% 3.5 mph SW5.6 kmh SW 3.5 mph5.6 kmh 29.46 in997.6 mb - 0.00 in0.0 mm 0.00 in0.0 mm
05:10 PM 28.0°F-2.2°C 17.1°F-8.3°C 63% 2.3 mph W3.7 kmh W 3.5 mph5.6 kmh 29.46 in997.6 mb - 0.00 in0.0 mm 0.00 in0.0 mm
05:15 PM 28.0°F-2.2°C 17.4°F-8.1°C 64% 2.3 mph WSW3.7 kmh WSW 3.5 mph5.6 kmh 29.46 in997.6 mb - 0.00 in0.0 mm 0.00 in0.0 mm
05:20 PM 27.9°F-2.3°C 17.3°F-8.2°C 64% 3.5 mph WSW5.6 kmh WSW 4.6 mph7.4 kmh 29.46 in997.6 mb - 0.00 in0.0 mm 0.00 in0.0 mm
05:25 PM 27.9°F-2.3°C 17.3°F-8.2°C 64% 2.3 mph WSW3.7 kmh WSW 3.5 mph5.6 kmh 29.46 in997.6 mb - 0.00 in0.0 mm 0.00 in0.0 mm
05:30 PM 27.9°F-2.3°C 17.3°F-8.2°C 64% 2.3 mph WSW3.7 kmh WSW 2.3 mph3.7 kmh 29.46 in997.6 mb - 0.00 in0.0 mm 0.00 in0.0 mm
05:35 PM 27.9°F-2.3°C 17.3°F-8.2°C 64% 3.5 mph SW5.6 kmh SW 3.5 mph5.6 kmh 29.46 in997.6 mb - 0.00 in0.0 mm 0.00 in0.0 mm
05:40 PM 27.7°F-2.4°C 17.1°F-8.3°C 64% 3.5 mph WSW5.6 kmh WSW 5.8 mph9.3 kmh 29.46 in997.6 mb - 0.00 in0.0 mm 0.00 in0.0 mm
05:45 PM 27.7°F-2.4°C 17.1°F-8.3°C 64% 3.5 mph SW5.6 kmh SW 3.5 mph5.6 kmh 29.47 in998.0 mb - 0.00 in0.0 mm 0.00 in0.0 mm
05:50 PM 27.7°F-2.4°C 17.4°F-8.1°C 65% 2.3 mph WSW3.7 kmh WSW 3.5 mph5.6 kmh 29.47 in998.0 mb - 0.00 in0.0 mm 0.00 in0.0 mm
05:55 PM 27.7°F-2.4°C 17.4°F-8.1°C 65% 3.5 mph SSW5.6 kmh SSW 4.6 mph7.4 kmh 29.47 in998.0 mb - 0.00 in0.0 mm 0.00 in0.0 mm
06:00 PM 27.8°F-2.3°C 17.6°F-8.0°C 65% 3.5 mph W5.6 kmh W 3.5 mph5.6 kmh 29.46 in997.6 mb - 0.00 in0.0 mm 0.00 in0.0 mm
06:10 PM 27.9°F-2.3°C 17.6°F-8.0°C 65% 3.5 mph SW5.6 kmh SW 4.6 mph7.4 kmh 29.46 in997.6 mb - 0.00 in0.0 mm 0.00 in0.0 mm
06:15 PM 27.9°F-2.3°C 17.6°F-8.0°C 65% 3.5 mph SW5.6 kmh SW 4.6 mph7.4 kmh 29.46 in997.6 mb - 0.00 in0.0 mm 0.00 in0.0 mm
06:20 PM 27.9°F-2.3°C 17.6°F-8.0°C 65% 4.6 mph SW7.4 kmh SW 5.8 mph9.3 kmh 29.46 in997.6 mb - 0.00 in0.0 mm 0.00 in0.0 mm
06:25 PM 27.9°F-2.3°C 17.6°F-8.0°C 65% 2.3 mph WSW3.7 kmh WSW 4.6 mph7.4 kmh 29.46 in997.6 mb - 0.00 in0.0 mm 0.00 in0.0 mm
06:30 PM 27.9°F-2.3°C 17.6°F-8.0°C 65% 4.6 mph WSW7.4 kmh WSW 6.9 mph11.1 kmh 29.47 in998.0 mb - 0.00 in0.0 mm 0.00 in0.0 mm
06:35 PM 28.0°F-2.2°C 18.1°F-7.7°C 66% 3.5 mph WSW5.6 kmh WSW 4.6 mph7.4 kmh 29.47 in998.0 mb - 0.00 in0.0 mm 0.00 in0.0 mm
06:40 PM 28.0°F-2.2°C 18.1°F-7.7°C 66% 4.6 mph SW7.4 kmh SW 6.9 mph11.1 kmh 29.47 in998.0 mb - 0.00 in0.0 mm 0.00 in0.0 mm
06:45 PM 28.0°F-2.2°C 18.1°F-7.7°C 66% 4.6 mph SW7.4 kmh SW 4.6 mph7.4 kmh 29.47 in998.0 mb - 0.00 in0.0 mm 0.00 in0.0 mm
06:50 PM 28.0°F-2.2°C 18.1°F-7.7°C 66% 3.5 mph W5.6 kmh W 4.6 mph7.4 kmh 29.47 in998.0 mb - 0.00 in0.0 mm 0.00 in0.0 mm
06:55 PM 28.0°F-2.2°C 18.1°F-7.7°C 66% 3.5 mph SW5.6 kmh SW 3.5 mph5.6 kmh 29.47 in998.0 mb - 0.00 in0.0 mm 0.00 in0.0 mm
07:00 PM 28.2°F-2.1°C 18.3°F-7.6°C 66% 3.5 mph WSW5.6 kmh WSW 3.5 mph5.6 kmh 29.48 in998.3 mb - 0.00 in0.0 mm 0.00 in0.0 mm
07:10 PM 28.2°F-2.1°C 18.3°F-7.6°C 66% 3.5 mph WSW5.6 kmh WSW 6.9 mph11.1 kmh 29.48 in998.3 mb - 0.00 in0.0 mm 0.00 in0.0 mm
07:15 PM 28.4°F-2.0°C 18.5°F-7.5°C 66% 4.6 mph WSW7.4 kmh WSW 5.8 mph9.3 kmh 29.48 in998.3 mb - 0.00 in0.0 mm 0.00 in0.0 mm
07:20 PM 28.4°F-2.0°C 18.1°F-7.7°C 65% 4.6 mph SW7.4 kmh SW 5.8 mph9.3 kmh 29.48 in998.3 mb - 0.00 in0.0 mm 0.00 in0.0 mm
07:25 PM 28.4°F-2.0°C 18.1°F-7.7°C 65% 3.5 mph WSW5.6 kmh WSW 3.5 mph5.6 kmh 29.48 in998.3 mb - 0.00 in0.0 mm 0.00 in0.0 mm
07:30 PM 28.4°F-2.0°C 18.1°F-7.7°C 65% 3.5 mph SW5.6 kmh SW 4.6 mph7.4 kmh 29.49 in998.6 mb - 0.00 in0.0 mm 0.00 in0.0 mm
07:35 PM 28.6°F-1.9°C 18.3°F-7.6°C 65% 3.5 mph WSW5.6 kmh WSW 3.5 mph5.6 kmh 29.49 in998.6 mb - 0.00 in0.0 mm 0.00 in0.0 mm
07:40 PM 28.6°F-1.9°C 18.3°F-7.6°C 65% 3.5 mph SW5.6 kmh SW 3.5 mph5.6 kmh 29.49 in998.6 mb - 0.00 in0.0 mm 0.00 in0.0 mm
07:45 PM 28.6°F-1.9°C 18.3°F-7.6°C 65% 4.6 mph WSW7.4 kmh WSW 4.6 mph7.4 kmh 29.48 in998.3 mb - 0.00 in0.0 mm 0.00 in0.0 mm
07:50 PM 28.6°F-1.9°C 18.3°F-7.6°C 65% 3.5 mph W5.6 kmh W 5.8 mph9.3 kmh 29.48 in998.3 mb - 0.00 in0.0 mm 0.00 in0.0 mm
07:55 PM 28.6°F-1.9°C 18.3°F-7.6°C 65% 3.5 mph SW5.6 kmh SW 3.5 mph5.6 kmh 29.48 in998.3 mb - 0.00 in0.0 mm 0.00 in0.0 mm
08:00 PM 28.6°F-1.9°C 18.3°F-7.6°C 65% 3.5 mph WSW5.6 kmh WSW 4.6 mph7.4 kmh 29.48 in998.3 mb - 0.00 in0.0 mm 0.00 in0.0 mm
08:10 PM 28.6°F-1.9°C 18.3°F-7.6°C 65% 3.5 mph SW5.6 kmh SW 4.6 mph7.4 kmh 29.48 in998.3 mb - 0.00 in0.0 mm 0.00 in0.0 mm
08:15 PM 28.6°F-1.9°C 18.3°F-7.6°C 65% 4.6 mph SW7.4 kmh SW 5.8 mph9.3 kmh 29.48 in998.3 mb - 0.00 in0.0 mm 0.00 in0.0 mm
08:20 PM 28.6°F-1.9°C 18.3°F-7.6°C 65% 2.3 mph WSW3.7 kmh WSW 3.5 mph5.6 kmh 29.48 in998.3 mb - 0.00 in0.0 mm 0.00 in0.0 mm
08:25 PM 28.8°F-1.8°C 18.5°F-7.5°C 65% 2.3 mph SW3.7 kmh SW 4.6 mph7.4 kmh 29.48 in998.3 mb - 0.00 in0.0 mm 0.00 in0.0 mm
08:30 PM 28.8°F-1.8°C 18.5°F-7.5°C 65% 3.5 mph WSW5.6 kmh WSW 3.5 mph5.6 kmh 29.48 in998.3 mb - 0.00 in0.0 mm 0.00 in0.0 mm
08:35 PM 28.8°F-1.8°C 18.5°F-7.5°C 65% 3.5 mph WSW5.6 kmh WSW 3.5 mph5.6 kmh 29.48 in998.3 mb - 0.00 in0.0 mm 0.00 in0.0 mm
08:40 PM 28.8°F-1.8°C 18.5°F-7.5°C 65% 2.3 mph SSW3.7 kmh SSW 3.5 mph5.6 kmh 29.48 in998.3 mb - 0.00 in0.0 mm 0.00 in0.0 mm
08:45 PM 28.8°F-1.8°C 18.5°F-7.5°C 65% 2.3 mph SW3.7 kmh SW 3.5 mph5.6 kmh 29.48 in998.3 mb - 0.00 in0.0 mm 0.00 in0.0 mm
08:50 PM 28.9°F-1.7°C 18.6°F-7.4°C 65% 3.5 mph SW5.6 kmh SW 3.5 mph5.6 kmh 29.48 in998.3 mb - 0.00 in0.0 mm 0.00 in0.0 mm
08:55 PM 28.9°F-1.7°C 18.6°F-7.4°C 65% 2.3 mph W3.7 kmh W 3.5 mph5.6 kmh 29.48 in998.3 mb - 0.00 in0.0 mm 0.00 in0.0 mm
09:00 PM 28.9°F-1.7°C 18.6°F-7.4°C 65% 2.3 mph SW3.7 kmh SW 3.5 mph5.6 kmh 29.47 in998.0 mb - 0.00 in0.0 mm 0.00 in0.0 mm
09:10 PM 28.9°F-1.7°C 18.6°F-7.4°C 65% 2.3 mph SW3.7 kmh SW 3.5 mph5.6 kmh 29.47 in998.0 mb - 0.00 in0.0 mm 0.00 in0.0 mm
09:15 PM 29.1°F-1.6°C 18.8°F-7.3°C 65% 2.3 mph SW3.7 kmh SW 3.5 mph5.6 kmh 29.48 in998.3 mb - 0.00 in0.0 mm 0.00 in0.0 mm
09:20 PM 29.1°F-1.6°C 18.8°F-7.3°C 65% 2.3 mph SSW3.7 kmh SSW 3.5 mph5.6 kmh 29.48 in998.3 mb - 0.00 in0.0 mm 0.00 in0.0 mm
09:25 PM 29.1°F-1.6°C 18.8°F-7.3°C 65% 2.3 mph WSW3.7 kmh WSW 2.3 mph3.7 kmh 29.48 in998.3 mb - 0.00 in0.0 mm 0.00 in0.0 mm
09:30 PM 29.1°F-1.6°C 18.8°F-7.3°C 65% 2.3 mph SW3.7 kmh SW 3.5 mph5.6 kmh 29.47 in998.0 mb - 0.00 in0.0 mm 0.00 in0.0 mm
09:35 PM 29.1°F-1.6°C 18.8°F-7.3°C 65% 2.3 mph SSW3.7 kmh SSW 3.5 mph5.6 kmh 29.47 in998.0 mb - 0.00 in0.0 mm 0.00 in0.0 mm
09:40 PM 29.1°F-1.6°C 18.8°F-7.3°C 65% 3.5 mph WSW5.6 kmh WSW 4.6 mph7.4 kmh 29.47 in998.0 mb - 0.00 in0.0 mm 0.00 in0.0 mm
09:45 PM 29.1°F-1.6°C 18.8°F-7.3°C 65% 3.5 mph WSW5.6 kmh WSW 3.5 mph5.6 kmh 29.48 in998.3 mb - 0.00 in0.0 mm 0.00 in0.0 mm
09:50 PM 29.1°F-1.6°C 18.8°F-7.3°C 65% 2.3 mph SSW3.7 kmh SSW 3.5 mph5.6 kmh 29.48 in998.3 mb - 0.00 in0.0 mm 0.00 in0.0 mm
09:55 PM 29.1°F-1.6°C 18.8°F-7.3°C 65% 3.5 mph SW5.6 kmh SW 5.8 mph9.3 kmh 29.48 in998.3 mb - 0.00 in0.0 mm 0.00 in0.0 mm
10:00 PM 29.1°F-1.6°C 18.8°F-7.3°C 65% 2.3 mph SW3.7 kmh SW 3.5 mph5.6 kmh 29.47 in998.0 mb - 0.00 in0.0 mm 0.00 in0.0 mm
10:10 PM 29.1°F-1.6°C 19.2°F-7.1°C 66% 2.3 mph WSW3.7 kmh WSW 2.3 mph3.7 kmh 29.47 in998.0 mb - 0.00 in0.0 mm 0.00 in0.0 mm
10:15 PM 29.1°F-1.6°C 19.2°F-7.1°C 66% 2.3 mph WSW3.7 kmh WSW 3.5 mph5.6 kmh 29.47 in998.0 mb - 0.00 in0.0 mm 0.00 in0.0 mm
10:20 PM 29.1°F-1.6°C 19.2°F-7.1°C 66% 2.3 mph WSW3.7 kmh WSW 3.5 mph5.6 kmh 29.47 in998.0 mb - 0.00 in0.0 mm 0.00 in0.0 mm
10:25 PM 29.1°F-1.6°C 19.2°F-7.1°C 66% 2.3 mph SW3.7 kmh SW 3.5 mph5.6 kmh 29.47 in998.0 mb - 0.00 in0.0 mm 0.00 in0.0 mm
10:30 PM 29.1°F-1.6°C 19.2°F-7.1°C 66% 2.3 mph SSW3.7 kmh SSW 3.5 mph5.6 kmh 29.48 in998.3 mb - 0.00 in0.0 mm 0.00 in0.0 mm
10:35 PM 29.1°F-1.6°C 19.2°F-7.1°C 66% 3.5 mph W5.6 kmh W 4.6 mph7.4 kmh 29.48 in998.3 mb - 0.00 in0.0 mm 0.00 in0.0 mm
10:40 PM 29.1°F-1.6°C 19.2°F-7.1°C 66% 3.5 mph SW5.6 kmh SW 4.6 mph7.4 kmh 29.48 in998.3 mb - 0.00 in0.0 mm 0.00 in0.0 mm
10:45 PM 29.3°F-1.5°C 19.3°F-7.1°C 66% 3.5 mph SW5.6 kmh SW 5.8 mph9.3 kmh 29.47 in998.0 mb - 0.00 in0.0 mm 0.00 in0.0 mm
10:50 PM 29.3°F-1.5°C 19.3°F-7.1°C 66% 3.5 mph WSW5.6 kmh WSW 3.5 mph5.6 kmh 29.47 in998.0 mb - 0.00 in0.0 mm 0.00 in0.0 mm
10:55 PM 29.3°F-1.5°C 19.3°F-7.1°C 66% 3.5 mph SW5.6 kmh SW 4.6 mph7.4 kmh 29.47 in998.0 mb - 0.00 in0.0 mm 0.00 in0.0 mm
11:00 PM 29.3°F-1.5°C 19.3°F-7.1°C 66% 3.5 mph SSW5.6 kmh SSW 3.5 mph5.6 kmh 29.47 in998.0 mb - 0.00 in0.0 mm 0.00 in0.0 mm
11:10 PM 29.3°F-1.5°C 19.3°F-7.1°C 66% 2.3 mph WSW3.7 kmh WSW 3.5 mph5.6 kmh 29.47 in998.0 mb - 0.00 in0.0 mm 0.00 in0.0 mm
11:15 PM 29.3°F-1.5°C 19.3°F-7.1°C 66% 2.3 mph WSW3.7 kmh WSW 2.3 mph3.7 kmh 29.46 in997.6 mb - 0.00 in0.0 mm 0.00 in0.0 mm
11:20 PM 29.3°F-1.5°C 19.3°F-7.1°C 66% 2.3 mph SW3.7 kmh SW 2.3 mph3.7 kmh 29.46 in997.6 mb - 0.00 in0.0 mm 0.00 in0.0 mm
11:25 PM 29.3°F-1.5°C 19.3°F-7.1°C 66% 2.3 mph SSW3.7 kmh SSW 3.5 mph5.6 kmh 29.46 in997.6 mb - 0.00 in0.0 mm 0.00 in0.0 mm
11:30 PM 29.3°F-1.5°C 19.3°F-7.1°C 66% 2.3 mph SW3.7 kmh SW 2.3 mph3.7 kmh 29.46 in997.6 mb - 0.00 in0.0 mm 0.00 in0.0 mm
11:35 PM 29.3°F-1.5°C 19.7°F-6.8°C 67% 2.3 mph WNW3.7 kmh WNW 2.3 mph3.7 kmh 29.46 in997.6 mb - 0.00 in0.0 mm 0.00 in0.0 mm
11:40 PM 29.3°F-1.5°C 19.7°F-6.8°C 67% 2.3 mph WSW3.7 kmh WSW 3.5 mph5.6 kmh 29.46 in997.6 mb - 0.00 in0.0 mm 0.00 in0.0 mm
11:45 PM 29.3°F-1.5°C 19.7°F-6.8°C 67% 2.3 mph SW3.7 kmh SW 3.5 mph5.6 kmh 29.46 in997.6 mb - 0.00 in0.0 mm 0.00 in0.0 mm
11:50 PM 29.3°F-1.5°C 19.7°F-6.8°C 67% 3.5 mph SSW5.6 kmh SSW 3.5 mph5.6 kmh 29.46 in997.6 mb - 0.00 in0.0 mm 0.00 in0.0 mm
11:55 PM 29.3°F-1.5°C 19.7°F-6.8°C 67% 2.3 mph SSW3.7 kmh SSW 3.5 mph5.6 kmh 29.46 in997.6 mb - 0.00 in0.0 mm 0.00 in0.0 mm